Time;durP1;ratioP1;P1;durP2;ratioP2;P2;SDS_P1;SDS_P2;PMS_P1;PMS_P2;Temp;Humidity;BMP_temperature;BMP_pressure;BME280_temperature;BME280_humidity;BME280_pressure;Samples;Min_cycle;Max_cycle;Signal;HPM_P1;HPM_P2
2022/07/14 00:02:04;;;;;;;10.25;9.52;;;;;;;23.19;46.93;100663.63;5014259;28;20026;-79
2022/07/14 00:04:29;;;;;;;9.55;8.60;;;;;;;23.14;47.09;100665.72;5015811;28;20045;-79
2022/07/14 00:06:55;;;;;;;9.88;9.07;;;;;;;23.10;46.85;100668.66;5015634;28;20030;-79
2022/07/14 00:09:20;;;;;;;9.35;8.68;;;;;;;23.07;46.92;100664.31;5006897;28;20448;-79
2022/07/14 00:11:45;;;;;;;8.50;7.65;;;;;;;23.01;47.22;100667.38;5015123;28;20424;-79
2022/07/14 00:14:11;;;;;;;10.45;9.75;;;;;;;22.99;47.19;100663.03;5015697;28;20516;-79
2022/07/14 00:16:36;;;;;;;9.13;8.50;;;;;;;22.90;47.63;100661.69;5000716;28;20038;-79
2022/07/14 00:19:01;;;;;;;8.77;8.18;;;;;;;22.85;47.63;100669.16;5006351;28;20046;-79
2022/07/14 00:21:27;;;;;;;10.68;9.88;;;;;;;22.80;47.50;100660.47;5014328;28;20034;-79
2022/07/14 00:23:52;;;;;;;11.82;11.02;;;;;;;22.73;47.34;100662.59;5007590;28;20026;-79
2022/07/14 00:26:17;;;;;;;10.68;9.98;;;;;;;22.68;47.91;100659.28;5014936;28;20045;-79
2022/07/14 00:28:43;;;;;;;10.80;10.10;;;;;;;22.63;47.92;100669.44;5015141;28;20084;-79
2022/07/14 00:31:10;;;;;;;11.10;10.40;;;;;;;22.57;47.91;100672.47;5010921;28;20042;-79
2022/07/14 00:33:38;;;;;;;10.00;9.32;;;;;;;22.53;47.84;100682.50;5010146;28;20034;-79
2022/07/14 00:36:04;;;;;;;10.13;9.43;;;;;;;22.47;47.76;100677.47;5010679;28;20084;-79
2022/07/14 00:38:29;;;;;;;10.13;9.50;;;;;;;22.40;48.12;100681.41;5014533;28;20045;-79
2022/07/14 00:40:57;;;;;;;11.63;10.82;;;;;;;22.35;48.19;100683.47;5001853;28;20034;-79
2022/07/14 00:43:22;;;;;;;10.55;9.85;;;;;;;22.28;48.60;100685.63;5004597;28;20460;-78
2022/07/14 00:45:48;;;;;;;10.43;9.52;;;;;;;22.28;48.91;100682.94;5000696;28;20438;-79
2022/07/14 00:48:13;;;;;;;12.13;11.43;;;;;;;22.28;48.59;100683.81;5013821;28;20385;-78
2022/07/14 00:50:41;;;;;;;10.38;9.70;;;;;;;22.29;48.31;100684.66;5013658;28;20108;-78
2022/07/14 00:53:08;;;;;;;13.40;12.30;;;;;;;22.25;48.33;100681.28;5020569;28;20029;-79
2022/07/14 00:55:39;;;;;;;11.85;11.10;;;;;;;22.17;48.76;100691.53;5001111;28;20030;-79
2022/07/14 00:58:06;;;;;;;12.43;11.20;;;;;;;22.10;49.02;100690.09;5007424;28;20523;-78
2022/07/14 01:00:31;;;;;;;10.50;9.80;;;;;;;22.07;49.20;100687.59;5004838;28;20125;-79
2022/07/14 01:02:57;;;;;;;10.38;9.63;;;;;;;22.01;49.06;100694.16;5012334;28;20137;-78
2022/07/14 01:05:22;;;;;;;9.18;8.48;;;;;;;21.97;48.90;100687.19;5013450;28;20077;-78
2022/07/14 01:07:47;;;;;;;9.75;8.25;;;;;;;21.92;49.14;100691.06;5000607;28;20044;-78
2022/07/14 01:10:13;;;;;;;10.82;10.13;;;;;;;21.88;49.07;100685.84;5004109;28;20120;-78
2022/07/14 01:12:45;;;;;;;9.65;8.98;;;;;;;21.85;49.44;100683.31;5012454;28;20396;-78
2022/07/14 01:15:11;;;;;;;9.63;9.02;;;;;;;21.79;49.79;100686.28;5004071;28;20091;-78
2022/07/14 01:17:37;;;;;;;9.77;9.10;;;;;;;21.73;49.54;100686.59;5012845;28;20038;-78
2022/07/14 01:20:04;;;;;;;11.75;10.75;;;;;;;21.68;50.05;100685.97;5011740;28;20041;-78
2022/07/14 01:22:29;;;;;;;9.82;9.13;;;;;;;21.61;50.24;100684.53;5002294;28;20045;-78
2022/07/14 01:24:55;;;;;;;10.52;9.77;;;;;;;21.56;50.23;100697.31;5009226;28;20038;-79
2022/07/14 01:27:20;;;;;;;10.52;9.73;;;;;;;21.50;50.82;100703.00;5013742;28;20033;-79
2022/07/14 01:29:45;;;;;;;12.40;11.65;;;;;;;21.45;50.31;100700.53;5014083;28;20488;-79
2022/07/14 01:32:11;;;;;;;11.82;10.93;;;;;;;21.49;50.56;100693.22;5003964;28;20480;-79
2022/07/14 01:34:37;;;;;;;13.00;12.20;;;;;;;21.57;50.76;100691.00;5012931;28;20037;-79
2022/07/14 01:37:02;;;;;;;11.80;11.05;;;;;;;21.67;50.45;100700.34;4984589;28;20030;-79
2022/07/14 01:39:27;;;;;;;11.65;10.80;;;;;;;21.75;50.56;100698.16;5013582;28;20045;-79
2022/07/14 01:41:53;;;;;;;12.27;11.32;;;;;;;21.83;50.37;100700.47;5012588;28;20037;-79
2022/07/14 01:44:18;;;;;;;13.30;12.30;;;;;;;21.85;50.22;100704.81;5003201;28;20050;-78
2022/07/14 01:46:44;;;;;;;13.52;12.73;;;;;;;21.89;50.97;100697.44;5008972;28;20507;-78
2022/07/14 01:49:09;;;;;;;11.82;11.05;;;;;;;21.90;50.48;100704.56;5000929;28;20042;-79
2022/07/14 01:51:35;;;;;;;14.20;13.20;;;;;;;21.93;50.45;100707.13;5017790;28;20160;-79
2022/07/14 01:54:04;;;;;;;11.55;10.82;;;;;;;21.92;50.79;100699.97;5000600;28;20073;-79
2022/07/14 01:56:32;;;;;;;12.90;11.90;;;;;;;21.93;50.86;100701.75;4987948;28;20550;-79
2022/07/14 01:59:00;;;;;;;12.23;11.32;;;;;;;21.99;50.64;100703.25;5003982;28;20038;-79
2022/07/14 02:01:41;;;;;;;12.82;12.07;;;;;;;22.00;50.66;100702.28;4999698;28;20030;-79
2022/07/14 02:04:12;;;;;;;13.05;12.35;;;;;;;22.05;50.33;100702.91;5000589;28;20042;-79
2022/07/14 02:06:43;;;;;;;13.40;12.40;;;;;;;22.12;50.10;100696.28;5000257;28;20046;-78
2022/07/14 02:09:16;;;;;;;14.07;13.13;;;;;;;22.18;49.50;100698.63;4991117;28;20044;-78
2022/07/14 02:14:28;;;;;;;15.00;13.85;;;;;;;22.26;49.85;100696.44;5000062;28;20162;-78
2022/07/14 02:16:55;;;;;;;14.98;13.50;;;;;;;22.27;49.45;100700.03;5016399;28;20040;-79
2022/07/14 02:19:21;;;;;;;14.23;13.20;;;;;;;22.19;49.79;100703.13;5000025;28;20042;-79
2022/07/14 02:21:47;;;;;;;13.98;13.00;;;;;;;22.19;50.08;100702.22;5012144;28;20046;-78
2022/07/14 02:24:13;;;;;;;15.90;14.95;;;;;;;22.12;50.63;100703.47;5012800;28;20029;-78
2022/07/14 02:26:41;;;;;;;14.85;13.85;;;;;;;22.09;49.97;100697.31;5019842;28;20447;-79
2022/07/14 02:29:06;;;;;;;16.60;15.55;;;;;;;22.01;50.62;100698.66;5011234;28;20042;-78
2022/07/14 02:31:33;;;;;;;16.80;15.70;;;;;;;21.89;51.30;100708.19;4998735;28;20045;-79
2022/07/14 02:33:59;;;;;;;19.17;18.08;;;;;;;21.82;51.19;100704.97;5004912;28;20040;-79
2022/07/14 02:36:24;;;;;;;15.90;14.90;;;;;;;21.68;51.37;100704.78;5003517;28;20030;-78
2022/07/14 02:38:50;;;;;;;17.35;16.15;;;;;;;21.66;51.17;100706.66;5003471;28;20041;-79
2022/07/14 02:41:16;;;;;;;15.20;14.13;;;;;;;21.61;51.54;100708.69;5002772;28;20121;-78
2022/07/14 02:43:41;;;;;;;14.98;14.07;;;;;;;21.55;52.26;100701.81;5002893;28;20041;-79
2022/07/14 02:46:07;;;;;;;13.05;12.25;;;;;;;21.40;52.03;100706.09;5001583;28;20029;-79
2022/07/14 02:48:32;;;;;;;12.63;11.93;;;;;;;21.40;52.25;100714.16;5014441;28;20029;-78
2022/07/14 02:51:06;;;;;;;13.48;12.68;;;;;;;21.44;51.99;100705.03;5006416;28;20032;-78
2022/07/14 02:53:34;;;;;;;12.57;11.77;;;;;;;21.41;52.57;100709.69;5006715;28;20042;-78
2022/07/14 02:56:00;;;;;;;12.55;11.63;;;;;;;21.45;51.84;100712.13;5014573;28;20504;-78
2022/07/14 02:58:25;;;;;;;12.43;11.63;;;;;;;21.47;52.00;100719.25;5002648;28;20034;-78
2022/07/14 03:00:52;;;;;;;14.52;13.63;;;;;;;21.43;52.36;100722.09;5006527;28;20034;-78
2022/07/14 03:03:17;;;;;;;14.30;13.40;;;;;;;21.36;52.44;100728.66;5006009;28;20034;-78
2022/07/14 03:05:43;;;;;;;14.45;13.55;;;;;;;21.40;52.41;100727.59;5006799;28;20030;-78
2022/07/14 03:08:09;;;;;;;10.13;9.43;;;;;;;21.30;53.02;100734.34;5006335;28;20041;-78
2022/07/14 03:10:35;;;;;;;12.88;11.98;;;;;;;21.24;53.32;100737.28;5003041;28;20041;-78
2022/07/14 03:13:01;;;;;;;10.80;10.02;;;;;;;21.22;53.01;100742.75;4998314;28;20038;-78
2022/07/14 03:15:27;;;;;;;10.75;10.02;;;;;;;21.13;53.19;100735.09;5006665;28;20026;-79
2022/07/14 03:17:53;;;;;;;11.60;10.90;;;;;;;21.04;53.68;100748.97;5006098;28;20045;-78
2022/07/14 03:20:18;;;;;;;10.73;9.93;;;;;;;20.95;54.32;100744.88;5006601;28;20038;-78
2022/07/14 03:22:45;;;;;;;16.02;15.10;;;;;;;20.89;54.57;100739.81;4999406;28;20053;-78
2022/07/14 03:25:17;;;;;;;12.52;11.73;;;;;;;20.82;54.57;100748.19;5016339;28;20448;-78
2022/07/14 03:27:46;;;;;;;18.15;16.77;;;;;;;20.82;54.61;100754.44;5001482;28;20057;-79
2022/07/14 03:30:13;;;;;;;16.85;15.77;;;;;;;20.76;54.83;100752.03;5010593;28;20098;-78
2022/07/14 03:32:39;;;;;;;14.52;13.63;;;;;;;20.76;54.67;100760.06;4985767;28;20093;-78
2022/07/14 03:35:07;;;;;;;15.52;14.55;;;;;;;20.73;54.90;100753.03;5004404;28;20038;-79
2022/07/14 03:37:33;;;;;;;13.98;13.18;;;;;;;20.70;55.02;100744.28;5005917;28;20037;-78
2022/07/14 03:40:04;;;;;;;14.68;13.88;;;;;;;20.72;54.84;100742.38;5006231;28;20030;-78
2022/07/14 03:42:30;;;;;;;15.45;14.57;;;;;;;20.74;54.89;100744.03;5012960;28;20034;-78
2022/07/14 03:44:55;;;;;;;17.45;16.55;;;;;;;20.69;55.43;100751.41;5001878;28;20093;-78
2022/07/14 03:47:21;;;;;;;16.95;15.98;;;;;;;20.70;55.19;100752.31;5005382;28;20087;-78
2022/07/14 03:49:48;;;;;;;19.50;18.20;;;;;;;20.67;55.41;100757.78;5005788;28;20076;-78
2022/07/14 03:52:14;;;;;;;23.38;22.17;;;;;;;20.61;55.20;100752.72;5004944;28;20396;-78
2022/07/14 03:54:44;;;;;;;20.23;19.10;;;;;;;20.58;55.92;100757.25;5003813;28;20121;-78
2022/07/14 03:57:11;;;;;;;20.00;18.77;;;;;;;20.56;55.34;100764.50;5019851;28;20512;-79
2022/07/14 03:59:42;;;;;;;19.65;18.63;;;;;;;20.57;55.62;100766.25;5005257;28;20045;-79
2022/07/14 04:02:13;;;;;;;21.40;20.17;;;;;;;20.62;55.48;100759.81;5005072;28;20404;-78
2022/07/14 04:04:39;;;;;;;21.05;19.88;;;;;;;20.63;55.50;100764.25;5002724;28;20037;-78
2022/07/14 04:07:05;;;;;;;19.48;18.48;;;;;;;20.56;56.37;100769.84;5005159;28;20602;-79
2022/07/14 04:09:32;;;;;;;22.30;21.02;;;;;;;20.52;56.22;100778.09;5005487;28;20033;-78
2022/07/14 04:11:58;;;;;;;19.20;18.05;;;;;;;20.49;56.62;100789.81;5004770;28;20034;-78
2022/07/14 04:14:24;;;;;;;16.67;15.73;;;;;;;20.44;57.03;100783.78;5007935;28;20041;-78
2022/07/14 04:16:50;;;;;;;19.50;18.20;;;;;;;20.48;56.80;100793.41;5000955;28;20034;-78
2022/07/14 04:19:17;;;;;;;17.15;16.15;;;;;;;20.36;56.77;100783.25;5001379;28;20115;-78
2022/07/14 04:21:44;;;;;;;16.45;15.38;;;;;;;20.36;57.08;100789.47;5004529;28;20026;-78
2022/07/14 04:24:09;;;;;;;15.27;14.35;;;;;;;20.26;57.43;100788.13;4989245;28;20038;-78
2022/07/14 04:26:37;;;;;;;16.70;15.60;;;;;;;20.23;57.37;100780.22;5005280;28;20025;-78
2022/07/14 04:29:03;;;;;;;15.90;15.00;;;;;;;20.26;57.83;100781.91;4988694;28;20435;-78
2022/07/14 04:31:29;;;;;;;15.93;15.02;;;;;;;20.31;57.88;100782.56;5000474;28;20540;-78
2022/07/14 04:33:54;;;;;;;18.10;16.65;;;;;;;20.29;58.15;100787.13;4997639;28;20026;-79
2022/07/14 04:36:20;;;;;;;19.52;18.40;;;;;;;20.31;57.49;100790.63;4998319;28;20038;-78
2022/07/14 04:38:46;;;;;;;16.85;15.88;;;;;;;20.39;57.55;100783.13;4982566;28;20522;-78
2022/07/14 04:41:11;;;;;;;18.42;17.13;;;;;;;20.40;57.97;100778.63;4991470;28;20035;-79
2022/07/14 04:43:39;;;;;;;19.83;18.42;;;;;;;20.42;57.81;100782.09;5007735;28;20040;-79
2022/07/14 04:46:06;;;;;;;19.85;18.75;;;;;;;20.44;57.69;100783.78;4992820;28;20037;-79
2022/07/14 04:52:01;;;;;;;23.00;21.73;;;;;;;20.41;58.01;100789.28;4987724;28;20026;-79
2022/07/14 04:52:06;;;;;;;28.75;27.20;;;;;;;20.47;57.54;100780.97;4995449;28;20038;-78
2022/07/14 04:54:06;;;;;;;24.35;22.92;;;;;;;20.55;57.60;100789.59;4994433;28;20453;-78
2022/07/14 04:57:03;;;;;;;28.95;27.55;;;;;;;20.67;57.54;100798.03;4999923;28;20026;-78
2022/07/14 04:59:33;;;;;;;30.83;29.25;;;;;;;20.69;57.29;100790.78;4987598;28;20163;-79
2022/07/14 05:02:00;;;;;;;32.50;30.75;;;;;;;20.73;57.36;100787.03;5010546;28;20480;-78
2022/07/14 05:04:26;;;;;;;35.55;33.75;;;;;;;20.85;57.03;100790.97;5000477;28;20038;-79
2022/07/14 05:06:51;;;;;;;29.65;28.08;;;;;;;20.79;57.06;100787.63;5004424;28;20034;-78
2022/07/14 05:09:18;;;;;;;34.97;33.08;;;;;;;20.95;56.98;100793.16;5011011;28;20021;-79
2022/07/14 05:11:45;;;;;;;36.25;34.50;;;;;;;20.99;57.07;100800.16;5003615;28;20416;-79
2022/07/14 05:14:10;;;;;;;37.90;36.03;;;;;;;21.01;56.67;100795.59;4987595;28;20039;-78
2022/07/14 05:16:36;;;;;;;38.80;36.63;;;;;;;21.11;56.69;100808.59;4996781;28;20125;-79
2022/07/14 05:19:02;;;;;;;41.40;39.40;;;;;;;21.23;55.98;100808.03;5004056;28;20030;-78
2022/07/14 05:21:27;;;;;;;38.03;35.80;;;;;;;21.19;55.84;100814.47;5003477;28;20045;-79
2022/07/14 05:23:54;;;;;;;42.85;40.78;;;;;;;21.06;55.95;100806.09;4994648;28;20026;-78
2022/07/14 05:26:21;;;;;;;40.88;38.80;;;;;;;21.06;57.02;100799.88;4990597;28;20057;-79
2022/07/14 05:28:47;;;;;;;42.72;40.70;;;;;;;20.96;56.62;100794.06;4993092;28;20068;-79
2022/07/14 05:31:12;;;;;;;43.65;41.53;;;;;;;20.96;56.61;100800.31;4982886;28;20057;-78
2022/07/14 05:33:42;;;;;;;46.22;44.03;;;;;;;21.03;56.33;100800.88;4998478;28;20085;-79
2022/07/14 05:36:07;;;;;;;48.13;45.83;;;;;;;21.12;56.04;100805.84;5004103;28;20432;-78
2022/07/14 05:38:33;;;;;;;49.30;46.40;;;;;;;21.06;56.36;100815.97;5011920;28;20033;-78
2022/07/14 05:41:01;;;;;;;49.67;46.85;;;;;;;21.05;56.66;100819.59;4991382;28;20034;-79
2022/07/14 05:43:27;;;;;;;42.28;40.28;;;;;;;21.02;56.74;100820.63;4996832;28;20060;-78
2022/07/14 05:45:54;;;;;;;50.45;47.95;;;;;;;21.12;56.22;100826.44;4981825;28;20050;-79
2022/07/14 05:48:19;;;;;;;47.28;44.78;;;;;;;21.12;55.80;100832.69;4991215;28;20061;-79
2022/07/14 05:50:45;;;;;;;48.45;46.00;;;;;;;21.17;56.23;100819.06;4994463;28;20030;-78
2022/07/14 05:53:10;;;;;;;39.88;37.90;;;;;;;21.24;56.65;100828.56;4990854;28;20038;-78
2022/07/14 05:55:36;;;;;;;46.97;44.67;;;;;;;21.24;56.21;100825.88;4999264;28;20472;-79
2022/07/14 05:58:02;;;;;;;37.65;35.83;;;;;;;21.02;56.45;100809.88;5003217;28;20038;-79
2022/07/14 06:00:27;;;;;;;47.75;45.42;;;;;;;21.01;56.67;100810.78;4994168;28;20564;-79
2022/07/14 06:02:52;;;;;;;49.40;46.80;;;;;;;20.89;56.28;100820.28;4975214;28;20030;-78
2022/07/14 06:05:21;;;;;;;56.33;53.63;;;;;;;20.95;56.63;100811.09;4992252;28;20038;-78
2022/07/14 06:07:47;;;;;;;47.83;45.42;;;;;;;20.92;56.53;100804.03;4994446;28;20034;-79
2022/07/14 06:10:13;;;;;;;42.90;40.72;;;;;;;20.90;56.29;100805.91;4991346;28;20040;-79
2022/07/14 06:12:40;;;;;;;38.58;36.33;;;;;;;21.02;56.47;100808.06;5012278;28;20061;-78
2022/07/14 06:15:07;;;;;;;25.60;24.13;;;;;;;21.00;56.84;100807.25;4999547;28;20464;-79
2022/07/14 06:17:34;;;;;;;26.42;25.13;;;;;;;21.13;56.21;100829.03;4997620;28;20034;-79
2022/07/14 06:20:06;;;;;;;23.15;21.95;;;;;;;21.35;56.38;100812.84;5004784;28;20092;-78
2022/07/14 06:22:36;;;;;;;24.90;23.70;;;;;;;21.66;55.31;100817.63;5002713;28;20026;-78
2022/07/14 06:25:02;;;;;;;37.05;34.92;;;;;;;21.72;54.44;100811.13;5018308;28;20049;-79
2022/07/14 06:27:28;;;;;;;41.33;39.28;;;;;;;21.83;53.51;100813.28;5000293;28;20046;-79
2022/07/14 06:29:54;;;;;;;44.42;42.00;;;;;;;21.86;53.69;100813.13;5003688;28;20040;-79
2022/07/14 06:32:19;;;;;;;60.20;57.25;;;;;;;21.96;53.52;100810.88;4985483;28;20402;-79
2022/07/14 06:34:46;;;;;;;50.22;47.63;;;;;;;21.82;53.38;100828.56;5004170;28;20137;-79
2022/07/14 06:37:18;;;;;;;47.38;45.17;;;;;;;21.69;53.21;100838.13;5007581;28;20500;-79
2022/07/14 06:39:43;;;;;;;70.50;66.93;;;;;;;21.69;53.51;100830.06;4999029;28;20081;-78
2022/07/14 06:42:09;;;;;;;64.03;60.88;;;;;;;21.54;53.49;100837.03;4993125;28;20496;-78
2022/07/14 06:44:41;;;;;;;64.32;61.42;;;;;;;21.75;53.07;100824.41;4999168;28;20041;-79
2022/07/14 06:47:06;;;;;;;57.80;55.00;;;;;;;21.94;52.98;100821.69;5000286;28;20489;-79
2022/07/14 06:49:31;;;;;;;64.28;61.33;;;;;;;22.04;52.96;100822.13;4996843;28;20042;-79
2022/07/14 06:51:58;;;;;;;72.60;69.32;;;;;;;22.05;52.40;100822.03;5002221;28;20080;-79
2022/07/14 06:54:23;;;;;;;68.28;65.15;;;;;;;22.05;52.70;100823.84;5001869;28;20030;-79
2022/07/14 06:56:48;;;;;;;57.55;54.85;;;;;;;22.17;52.34;100823.25;5009995;28;20092;-79
2022/07/14 06:59:14;;;;;;;59.97;56.90;;;;;;;22.02;52.40;100824.88;5016296;28;20030;-79
2022/07/14 07:01:39;;;;;;;73.60;70.15;;;;;;;21.83;53.57;100837.47;5015929;28;20041;-78
2022/07/14 07:04:04;;;;;;;68.97;65.78;;;;;;;21.74;53.59;100829.84;5015142;28;20038;-78
2022/07/14 07:06:45;;;;;;;63.83;60.72;;;;;;;21.71;52.71;100833.53;5016671;28;20072;-79
2022/07/14 07:09:12;;;;;;;63.85;60.65;;;;;;;21.97;52.93;100823.38;5017179;28;20044;-79
2022/07/14 07:11:38;;;;;;;39.90;37.97;;;;;;;22.26;52.56;100820.13;5014730;28;20443;-79
2022/07/14 07:14:03;;;;;;;67.35;64.28;;;;;;;22.43;51.35;100815.75;5007330;28;20087;-79
2022/07/14 07:16:28;;;;;;;63.72;60.78;;;;;;;22.43;51.56;100808.53;5015173;28;20117;-79
2022/07/14 07:18:54;;;;;;;56.97;53.97;;;;;;;22.58;51.54;100827.50;5015211;28;20046;-78
2022/07/14 07:21:20;;;;;;;66.55;63.15;;;;;;;22.45;51.16;100811.13;5015471;28;20145;-79
2022/07/14 07:23:49;;;;;;;59.20;56.28;;;;;;;22.38;51.79;100812.41;5015589;28;20113;-79
2022/07/14 07:26:16;;;;;;;48.60;46.30;;;;;;;22.18;51.86;100802.63;5004453;28;20042;-79
2022/07/14 07:28:42;;;;;;;47.13;44.75;;;;;;;22.24;51.87;100802.31;5004402;28;20521;-79
2022/07/14 07:31:07;;;;;;;48.90;46.55;;;;;;;22.25;51.57;100799.56;5013742;28;20128;-79
2022/07/14 07:33:33;;;;;;;55.10;52.40;;;;;;;22.29;51.44;100795.75;5014187;28;20547;-79
2022/07/14 07:35:59;;;;;;;62.90;59.50;;;;;;;22.36;50.89;100795.47;5006279;28;20488;-79
2022/07/14 07:38:26;;;;;;;67.35;64.18;;;;;;;22.37;50.99;100797.19;5013648;28;20484;-79
2022/07/14 07:40:53;;;;;;;63.13;60.20;;;;;;;22.54;50.43;100789.16;5018118;23;20048;-75
2022/07/14 07:43:20;;;;;;;58.22;54.97;;;;;;;22.63;51.08;100795.88;5013021;28;20379;-75
2022/07/14 07:45:46;;;;;;;47.45;45.20;;;;;;;22.38;51.61;100794.44;5018804;28;20026;-75
2022/07/14 07:48:12;;;;;;;50.72;48.00;;;;;;;22.28;51.64;100788.66;5024424;28;20041;-75
2022/07/14 07:50:40;;;;;;;29.38;27.88;;;;;;;22.29;51.86;100785.00;5022784;28;20029;-75
2022/07/14 07:53:07;;;;;;;31.67;29.90;;;;;;;22.24;52.38;100786.19;5020050;28;20045;-75
2022/07/14 07:55:32;;;;;;;37.40;35.60;;;;;;;22.37;51.76;100786.44;5022307;28;20451;-75
2022/07/14 07:57:57;;;;;;;36.15;34.15;;;;;;;22.68;50.83;100791.97;5024670;28;20034;-75
2022/07/14 08:00:23;;;;;;;40.63;38.53;;;;;;;22.96;50.14;100790.53;5021729;28;20447;-75
2022/07/14 08:02:52;;;;;;;42.22;40.03;;;;;;;23.34;49.52;100798.34;5023615;28;20449;-76
2022/07/14 08:05:19;;;;;;;45.72;43.50;;;;;;;23.34;48.60;100801.06;5023310;28;20369;-75
2022/07/14 08:07:44;;;;;;;36.72;34.92;;;;;;;23.46;47.77;100789.59;5022311;28;20411;-75
2022/07/14 08:10:09;;;;;;;36.33;34.42;;;;;;;23.40;48.44;100784.56;5024172;28;20044;-76
2022/07/14 08:12:34;;;;;;;27.17;25.60;;;;;;;23.51;48.59;100776.75;5020621;28;20480;-75
2022/07/14 08:15:00;;;;;;;34.58;32.80;;;;;;;23.57;47.95;100783.63;5024430;28;20037;-75
2022/07/14 08:17:25;;;;;;;24.65;23.15;;;;;;;23.16;48.91;100790.34;5020238;28;20041;-75
2022/07/14 08:19:51;;;;;;;25.27;23.85;;;;;;;23.15;48.60;100775.13;5016318;28;20052;-76
2022/07/14 08:22:27;;;;;;;17.17;16.25;;;;;;;23.15;48.66;100779.66;5017335;28;20046;-75
2022/07/14 08:24:54;;;;;;;17.45;16.50;;;;;;;22.88;49.05;100782.84;5020810;28;20221;-75
2022/07/14 08:27:20;;;;;;;15.15;14.18;;;;;;;23.01;49.76;100779.56;5021723;28;20026;-75
2022/07/14 08:29:45;;;;;;;13.85;12.63;;;;;;;23.10;49.05;100771.81;5020714;28;20048;-75
2022/07/14 08:32:11;;;;;;;15.05;14.13;;;;;;;23.08;49.00;100771.06;5008915;28;20049;-75
2022/07/14 08:34:37;;;;;;;14.32;13.50;;;;;;;23.19;49.12;100765.09;5013870;28;20111;-75
2022/07/14 08:37:03;;;;;;;15.80;14.52;;;;;;;23.34;48.85;100753.47;5016974;28;20410;-75
2022/07/14 08:39:28;;;;;;;14.85;13.93;;;;;;;23.55;48.42;100756.78;5011356;28;20034;-75
2022/07/14 08:41:54;;;;;;;14.25;13.45;;;;;;;23.45;48.01;100760.06;5012118;28;20033;-75
2022/07/14 08:44:20;;;;;;;13.38;12.63;;;;;;;23.63;47.77;100759.00;5011317;28;20037;-75
2022/07/14 08:46:46;;;;;;;15.23;14.32;;;;;;;23.79;47.96;100748.28;5011176;28;20484;-76
2022/07/14 08:49:14;;;;;;;13.88;12.85;;;;;;;23.68;47.50;100751.53;5022162;28;20034;-75
2022/07/14 08:51:42;;;;;;;17.77;16.73;;;;;;;23.54;46.92;100746.94;5019742;28;20037;-75
2022/07/14 08:54:11;;;;;;;16.15;15.25;;;;;;;23.36;47.80;100745.28;5022998;28;20168;-75
2022/07/14 08:56:38;;;;;;;14.15;13.38;;;;;;;23.15;48.02;100740.13;5022609;28;20030;-72
2022/07/14 08:59:04;;;;;;;13.85;12.88;;;;;;;22.88;48.27;100733.56;5020906;28;20412;-73
2022/07/14 09:01:30;;;;;;;16.23;15.25;;;;;;;22.76;48.89;100727.00;5020466;28;20029;-73
2022/07/14 09:03:55;;;;;;;13.15;12.25;;;;;;;22.86;49.44;100724.69;5017903;28;20562;-73
2022/07/14 09:06:51;;;;;;;13.43;12.40;;;;;;;23.09;48.81;100718.09;5022584;28;20041;-73
2022/07/14 09:09:29;;;;;;;18.33;17.42;;;;;;;23.22;47.95;100721.84;5019185;28;20049;-73
2022/07/14 09:12:01;;;;;;;20.52;19.35;;;;;;;23.25;46.90;100727.03;5011628;28;20034;-73
2022/07/14 09:14:27;;;;;;;;;;;;;;;23.50;46.13;100721.16;5023987;28;20057;-73
2022/07/14 09:17:13;;;;;;;19.98;18.98;;;;;;;23.68;46.48;100711.13;5018150;28;19964;-73
2022/07/14 09:20:06;;;;;;;15.75;14.60;;;;;;;23.87;46.05;100713.66;5010711;28;20050;-73
2022/07/14 09:22:32;;;;;;;14.07;13.27;;;;;;;23.40;46.98;100699.25;5016894;28;20038;-73
2022/07/14 09:24:58;;;;;;;14.43;13.10;;;;;;;23.33;45.92;100699.69;5021599;28;20116;-73
2022/07/14 09:27:23;;;;;;;13.40;12.40;;;;;;;23.46;45.86;100708.81;5019603;28;20116;-73
2022/07/14 09:29:55;;;;;;;13.10;12.38;;;;;;;23.82;45.29;100726.53;5016633;28;20065;-73
2022/07/14 09:32:40;;;;;;;13.70;13.00;;;;;;;24.31;44.45;100723.59;5018160;28;20041;-73
2022/07/14 09:35:06;;;;;;;15.13;13.80;;;;;;;24.69;43.61;100728.53;5020926;28;20362;-73
2022/07/14 09:37:32;;;;;;;13.30;12.57;;;;;;;24.75;43.47;100738.06;5021257;28;20040;-73
2022/07/14 09:39:58;;;;;;;11.35;10.60;;;;;;;24.95;42.96;100734.13;5022035;28;20049;-73
2022/07/14 09:42:55;;;;;;;11.00;10.07;;;;;;;25.02;41.70;100721.97;5019097;28;20030;-72
2022/07/14 09:45:24;;;;;;;10.63;9.90;;;;;;;24.94;41.55;100717.03;5016714;28;20504;-73
2022/07/14 09:47:55;;;;;;;11.00;10.30;;;;;;;24.89;41.99;100720.06;5020780;28;20458;-73
2022/07/14 09:50:50;;;;;;;10.48;9.82;;;;;;;24.45;41.69;100704.78;5018885;28;20426;-73
2022/07/14 09:53:22;;;;;;;9.77;8.95;;;;;;;24.14;42.87;100705.75;5013393;28;20121;-73
2022/07/14 09:55:53;;;;;;;12.40;11.70;;;;;;;24.10;42.06;100697.94;5021594;28;20034;-73
2022/07/14 09:58:20;;;;;;;6.68;6.15;;;;;;;24.00;42.43;100697.63;5022067;28;20091;-73
2022/07/14 10:01:03;;;;;;;7.35;6.95;;;;;;;24.04;41.95;100700.03;5022496;28;20080;-73
2022/07/14 10:03:31;;;;;;;8.38;7.88;;;;;;;24.19;41.88;100692.00;5022094;28;20416;-72
2022/07/14 10:05:58;;;;;;;7.88;7.28;;;;;;;24.40;41.83;100701.47;5012160;28;20041;-74
2022/07/14 10:08:26;;;;;;;11.45;10.82;;;;;;;24.48;40.76;100699.22;5020070;28;20049;-74
2022/07/14 10:10:53;;;;;;;10.38;9.75;;;;;;;24.52;40.69;100702.56;5020238;28;20037;-73
2022/07/14 10:13:19;;;;;;;8.95;8.35;;;;;;;24.64;40.11;100700.97;5022948;28;20038;-73
2022/07/14 10:15:46;;;;;;;9.43;8.93;;;;;;;24.83;40.07;100703.38;5019424;28;20061;-73
2022/07/14 10:18:12;;;;;;;12.40;10.02;;;;;;;25.25;39.04;100690.81;5016328;28;20056;-73
2022/07/14 10:20:38;;;;;;;9.50;8.90;;;;;;;25.00;39.94;100688.81;5015005;28;20503;-73
2022/07/14 10:23:05;;;;;;;9.70;9.10;;;;;;;25.17;39.41;100696.72;5020613;28;20025;-73
2022/07/14 10:25:31;;;;;;;9.35;8.75;;;;;;;25.39;39.29;100690.81;5021299;28;20033;-73
2022/07/14 10:27:57;;;;;;;11.05;10.35;;;;;;;25.50;38.60;100692.78;5023492;28;20033;-73
2022/07/14 10:30:36;;;;;;;9.60;8.88;;;;;;;25.67;38.33;100688.97;5024943;28;20458;-74
2022/07/14 10:33:07;;;;;;;9.25;8.65;;;;;;;25.88;38.77;100687.53;5018426;28;20030;-74
2022/07/14 10:35:56;;;;;;;8.13;7.60;;;;;;;25.70;38.35;100686.94;5018027;28;20038;-73
2022/07/14 10:38:40;;;;;;;8.07;7.50;;;;;;;26.04;37.98;100676.53;5017419;28;20034;-74
2022/07/14 10:41:30;;;;;;;7.53;6.97;;;;;;;26.00;37.77;100672.34;5016602;28;20045;-73
2022/07/14 10:44:09;;;;;;;7.32;6.72;;;;;;;25.73;37.94;100667.81;5021588;28;20079;-74
2022/07/14 10:46:37;;;;;;;7.85;7.10;;;;;;;25.56;38.57;100677.03;5014747;28;20069;-73
2022/07/14 10:49:08;;;;;;;6.70;6.25;;;;;;;25.56;38.32;100670.75;5020389;28;20081;-73
2022/07/14 10:51:42;;;;;;;8.07;7.47;;;;;;;25.49;38.74;100658.63;5018197;28;20037;-73
2022/07/14 10:54:21;;;;;;;7.38;6.78;;;;;;;25.60;38.07;100661.50;5020852;28;20737;-73
2022/07/14 10:56:47;;;;;;;6.90;6.40;;;;;;;25.59;38.64;100652.50;5022482;28;20037;-74
2022/07/14 10:59:25;;;;;;;9.00;7.18;;;;;;;25.71;38.34;100642.72;5019641;28;20099;-74
2022/07/14 11:02:15;;;;;;;6.93;6.32;;;;;;;25.79;38.21;100626.81;5018804;28;20038;-74
2022/07/14 11:07:46;;;;;;;8.27;7.47;;;;;;;26.48;37.53;100612.19;5022794;28;20073;-74
2022/07/14 11:10:18;;;;;;;7.60;7.10;;;;;;;26.73;36.83;100614.91;5023007;28;20038;-73
2022/07/14 11:13:02;;;;;;;6.97;6.55;;;;;;;26.72;36.20;100612.28;5022009;28;20176;-73
2022/07/14 11:15:38;;;;;;;7.20;6.50;;;;;;;26.97;35.86;100609.53;5023139;28;20038;-74
2022/07/14 11:18:21;;;;;;;7.53;6.90;;;;;;;27.60;35.13;100598.56;5020367;28;20077;-74
2022/07/14 11:20:52;;;;;;;6.85;6.35;;;;;;;27.47;34.50;100594.06;5021196;28;20034;-74
2022/07/14 11:23:22;;;;;;;7.50;6.85;;;;;;;27.56;34.18;100608.75;5022892;28;20460;-74